Météo

Actualisé à 21h30, Lille

icon

T : 16 °C / H : 68 %
Pression : 1016 Hpa
Vent d'est : 7 Km/h

ciel clair

2024/05/25 20:30 LFQQ 252030Z AUTO 09004KT CAVOK 16/10 Q1016 NOSIG

Mots clés

Internet web infographiste flyers illustrateur graphiste webmaster PAO assistance informatique logo image invitation affiche création réalisation conception site vitrine voeux carte visite publication publicité impression plaquette charte graphique identité visuelle maintenance freelance


CSS Valide ! Valid HTML 5.0
Conseiller en communication Objet publicitaire - Cadeaux d'affaire 4 CATALOGUES d'articles publicitaires en ligne à consulter!!
Site en relation avec votre magasin Photographe - Developpement en ligne
OUTILS EN LIGNE Antivirus - Antihoax Scanner de ports - Traceur VisualRoute Logo Secuser.com